Nearby METAR Data
EGNX - East Midlands, United Kingdom
Distance from station: SSE 24mi, 39km
Updated: 21/07/2019 01:20
Clear
Clear
 Wind from SW
Wind: SW 8 mph , 13 km/h
Temperature: 14°C
Dew Point: 12°C
Humidity: 88%
Barometer: 1015 hPa
Summary: Clear
Visibility: greater than 7 miles , 10 km
2019/07/21 00:20 EGNX 210020Z 23007KT CAVOK 14/12 Q1015
EGCN - Doncaster Sheffi, United Kingdom
Distance from station: NE 31mi, 49km
Updated: 21/07/2019 01:20
Clear
Clear
 Wind from SSW
Wind: SSW 7 mph , 11 km/h
Temperature: 12°C
Dew Point: 10°C
Humidity: 88%
Barometer: 1015 hPa
Summary: Clear
Visibility: greater than 7 miles , 10 km
2019/07/21 00:20 EGCN 210020Z 20006KT CAVOK 12/10 Q1015
 
EGXS - Swinderby Raf, United Kingdom
Distance from station: E 33mi, 54km
Updated: 21/07/2019 00:50
Clear
Clear
 Wind from WSW
Wind: WSW 8 mph , 13 km/h
Temperature: 13°C
Dew Point: 11°C
Humidity: 88%
Barometer: 1013 hPa
Clouds: Clear
Visibility: 6 miles , 10 km
2019/07/20 23:50 EGXS 202350Z AUTO 24007KT 9999 // NCD 13/11 Q1013
EGCC - Manchester Intl, United Kingdom
Distance from station: WNW 35mi, 56km
Updated: 21/07/2019 01:20
Clear
Clear
 Wind from SSW
Wind: SSW 3 mph , 6 km/h
Temperature: 15°C
Dew Point: 12°C
Humidity: 82%
Barometer: 1015 hPa
Clouds: Clear
Visibility: 6 miles , 10 km
2019/07/21 00:20 EGCC 210020Z AUTO 21003KT 9999 NCD 15/12 Q1015
 
EGXP - Scampton Raf, United Kingdom
Distance from station: ENE 40mi, 65km
Updated: 21/07/2019 00:50
Clear
Clear
 Wind from WSW
Wind: WSW 7 mph , 11 km/h
Temperature: 11°C
Dew Point: 9°C
Humidity: 88%
Barometer: 1014 hPa
Clouds: Clear
Visibility: 6 miles , 10 km
2019/07/20 23:50 EGXP 202350Z AUTO 25006KT 9999 // NCD 11/09 Q1014
EGXW - Waddington Raf, United Kingdom
Distance from station: E 40mi, 65km
Updated: 21/07/2019 00:50
Partly Cloudy
Partly Cloudy
 Wind from WSW
Wind: WSW 7 mph , 11 km/h
Temperature: 14°C
Dew Point: 10°C
Humidity: 77%
Barometer: 1014 hPa
Clouds: Partly Cloudy
Visibility: 6 miles , 10 km
Cloud details: Partly Cloudy 1524 m
2019/07/20 23:50 EGXW 202350Z AUTO 25006KT 9999 SCT050/// 14/10 Q1014